sensor_id;sensor_type;location;lat;lon;timestamp;temperature;humidity
11569;DHT22;5840;46.894;15.542;2023-04-25T00:01:57;9.20;99.90
11569;DHT22;5840;46.894;15.542;2023-04-25T00:04:25;9.20;99.90
11569;DHT22;5840;46.894;15.542;2023-04-25T00:06:53;9.20;99.90
11569;DHT22;5840;46.894;15.542;2023-04-25T00:09:20;9.20;99.90
11569;DHT22;5840;46.894;15.542;2023-04-25T00:11:47;9.20;99.90
11569;DHT22;5840;46.894;15.542;2023-04-25T00:14:15;9.20;99.90
11569;DHT22;5840;46.894;15.542;2023-04-25T00:16:42;9.20;99.90
11569;DHT22;5840;46.894;15.542;2023-04-25T00:19:09;9.10;99.90
11569;DHT22;5840;46.894;15.542;2023-04-25T00:21:37;9.10;99.90
11569;DHT22;5840;46.894;15.542;2023-04-25T00:24:06;9.10;99.90
11569;DHT22;5840;46.894;15.542;2023-04-25T00:26:34;9.10;99.90
11569;DHT22;5840;46.894;15.542;2023-04-25T00:29:01;9.10;99.90
11569;DHT22;5840;46.894;15.542;2023-04-25T00:31:30;9.10;99.90
11569;DHT22;5840;46.894;15.542;2023-04-25T00:33:57;9.10;99.90
11569;DHT22;5840;46.894;15.542;2023-04-25T00:36:24;9.10;99.90
11569;DHT22;5840;46.894;15.542;2023-04-25T00:38:53;9.10;99.90
11569;DHT22;5840;46.894;15.542;2023-04-25T00:41:20;9.10;99.90
11569;DHT22;5840;46.894;15.542;2023-04-25T00:43:48;9.10;99.90
11569;DHT22;5840;46.894;15.542;2023-04-25T00:46:15;9.10;99.90
11569;DHT22;5840;46.894;15.542;2023-04-25T00:48:43;9.00;99.90
11569;DHT22;5840;46.894;15.542;2023-04-25T00:51:15;9.00;99.90
11569;DHT22;5840;46.894;15.542;2023-04-25T00:53:44;9.00;99.90
11569;DHT22;5840;46.894;15.542;2023-04-25T00:56:12;9.00;99.90
11569;DHT22;5840;46.894;15.542;2023-04-25T00:58:40;9.00;99.90
11569;DHT22;5840;46.894;15.542;2023-04-25T01:01:08;9.00;99.90
11569;DHT22;5840;46.894;15.542;2023-04-25T01:03:37;9.00;99.90
11569;DHT22;5840;46.894;15.542;2023-04-25T01:06:07;9.00;99.90
11569;DHT22;5840;46.894;15.542;2023-04-25T01:08:35;8.90;99.90
11569;DHT22;5840;46.894;15.542;2023-04-25T01:11:02;8.90;99.90
11569;DHT22;5840;46.894;15.542;2023-04-25T01:13:30;8.90;99.90
11569;DHT22;5840;46.894;15.542;2023-04-25T01:15:57;8.80;99.90
11569;DHT22;5840;46.894;15.542;2023-04-25T01:18:24;8.80;99.90
11569;DHT22;5840;46.894;15.542;2023-04-25T01:20:52;8.80;99.90
11569;DHT22;5840;46.894;15.542;2023-04-25T01:23:21;8.80;99.90
11569;DHT22;5840;46.894;15.542;2023-04-25T01:25:48;8.80;99.90
11569;DHT22;5840;46.894;15.542;2023-04-25T01:28:16;8.70;99.90
11569;DHT22;5840;46.894;15.542;2023-04-25T01:30:43;8.70;99.90
11569;DHT22;5840;46.894;15.542;2023-04-25T01:33:11;8.70;99.90
11569;DHT22;5840;46.894;15.542;2023-04-25T01:35:40;8.70;99.90
11569;DHT22;5840;46.894;15.542;2023-04-25T01:38:08;8.70;99.90
11569;DHT22;5840;46.894;15.542;2023-04-25T01:40:39;8.60;99.90
11569;DHT22;5840;46.894;15.542;2023-04-25T01:43:07;8.60;99.90
11569;DHT22;5840;46.894;15.542;2023-04-25T01:45:36;8.60;99.90
11569;DHT22;5840;46.894;15.542;2023-04-25T01:48:05;8.60;99.90
11569;DHT22;5840;46.894;15.542;2023-04-25T01:50:32;8.60;99.90
11569;DHT22;5840;46.894;15.542;2023-04-25T01:52:59;8.60;99.90
11569;DHT22;5840;46.894;15.542;2023-04-25T01:55:27;8.50;99.90
11569;DHT22;5840;46.894;15.542;2023-04-25T01:57:55;8.50;99.90
11569;DHT22;5840;46.894;15.542;2023-04-25T02:00:22;8.50;99.90
11569;DHT22;5840;46.894;15.542;2023-04-25T02:02:49;8.50;99.90
11569;DHT22;5840;46.894;15.542;2023-04-25T02:05:19;8.50;99.90
11569;DHT22;5840;46.894;15.542;2023-04-25T02:07:46;8.40;99.90
11569;DHT22;5840;46.894;15.542;2023-04-25T02:10:13;8.30;99.90
11569;DHT22;5840;46.894;15.542;2023-04-25T02:12:40;8.20;99.90
11569;DHT22;5840;46.894;15.542;2023-04-25T02:15:09;8.20;99.90
11569;DHT22;5840;46.894;15.542;2023-04-25T02:17:37;8.10;99.90
11569;DHT22;5840;46.894;15.542;2023-04-25T02:20:05;8.10;99.90
11569;DHT22;5840;46.894;15.542;2023-04-25T02:22:33;8.10;99.90
11569;DHT22;5840;46.894;15.542;2023-04-25T02:25:01;8.00;99.90
11569;DHT22;5840;46.894;15.542;2023-04-25T02:27:30;8.00;99.90
11569;DHT22;5840;46.894;15.542;2023-04-25T02:29:57;8.00;99.90
11569;DHT22;5840;46.894;15.542;2023-04-25T02:32:25;8.00;99.90
11569;DHT22;5840;46.894;15.542;2023-04-25T02:34:52;7.90;99.90
11569;DHT22;5840;46.894;15.542;2023-04-25T02:37:19;7.90;99.90
11569;DHT22;5840;46.894;15.542;2023-04-25T02:39:46;7.80;99.90
11569;DHT22;5840;46.894;15.542;2023-04-25T02:42:13;7.80;99.90
11569;DHT22;5840;46.894;15.542;2023-04-25T02:44:40;7.70;99.90
11569;DHT22;5840;46.894;15.542;2023-04-25T02:47:07;7.60;99.90
11569;DHT22;5840;46.894;15.542;2023-04-25T02:49:36;7.60;99.90
11569;DHT22;5840;46.894;15.542;2023-04-25T02:52:03;7.60;99.90
11569;DHT22;5840;46.894;15.542;2023-04-25T02:54:30;7.60;99.90
11569;DHT22;5840;46.894;15.542;2023-04-25T02:56:57;7.60;99.90
11569;DHT22;5840;46.894;15.542;2023-04-25T02:59:24;7.60;99.90
11569;DHT22;5840;46.894;15.542;2023-04-25T03:01:50;7.60;99.90
11569;DHT22;5840;46.894;15.542;2023-04-25T03:04:17;7.60;99.90
11569;DHT22;5840;46.894;15.542;2023-04-25T03:06:47;7.60;99.90
11569;DHT22;5840;46.894;15.542;2023-04-25T03:09:15;7.50;99.90
11569;DHT22;5840;46.894;15.542;2023-04-25T03:11:43;7.50;99.90
11569;DHT22;5840;46.894;15.542;2023-04-25T03:14:10;7.50;99.90
11569;DHT22;5840;46.894;15.542;2023-04-25T03:16:37;7.50;99.90
11569;DHT22;5840;46.894;15.542;2023-04-25T03:19:04;7.50;99.90
11569;DHT22;5840;46.894;15.542;2023-04-25T03:21:32;7.50;99.90
11569;DHT22;5840;46.894;15.542;2023-04-25T03:24:02;7.40;99.90
11569;DHT22;5840;46.894;15.542;2023-04-25T03:26:30;7.40;99.90
11569;DHT22;5840;46.894;15.542;2023-04-25T03:28:56;7.40;99.90
11569;DHT22;5840;46.894;15.542;2023-04-25T03:31:23;7.40;99.90
11569;DHT22;5840;46.894;15.542;2023-04-25T03:33:50;7.40;99.90
11569;DHT22;5840;46.894;15.542;2023-04-25T03:36:17;7.30;99.90
11569;DHT22;5840;46.894;15.542;2023-04-25T03:38:44;7.30;99.90
11569;DHT22;5840;46.894;15.542;2023-04-25T03:41:12;7.20;99.90
11569;DHT22;5840;46.894;15.542;2023-04-25T03:43:39;7.20;99.90
11569;DHT22;5840;46.894;15.542;2023-04-25T03:46:06;7.20;99.90
11569;DHT22;5840;46.894;15.542;2023-04-25T03:48:33;7.20;99.90
11569;DHT22;5840;46.894;15.542;2023-04-25T03:51:00;7.20;99.90
11569;DHT22;5840;46.894;15.542;2023-04-25T03:53:27;7.20;99.90
11569;DHT22;5840;46.894;15.542;2023-04-25T03:55:54;7.20;99.90
11569;DHT22;5840;46.894;15.542;2023-04-25T03:58:23;7.20;99.90
11569;DHT22;5840;46.894;15.542;2023-04-25T04:00:50;7.10;99.90
11569;DHT22;5840;46.894;15.542;2023-04-25T04:03:17;7.10;99.90
11569;DHT22;5840;46.894;15.542;2023-04-25T04:05:44;7.10;99.90
11569;DHT22;5840;46.894;15.542;2023-04-25T04:08:11;7.10;99.90
11569;DHT22;5840;46.894;15.542;2023-04-25T04:10:38;7.10;99.90
11569;DHT22;5840;46.894;15.542;2023-04-25T04:13:05;7.10;99.90
11569;DHT22;5840;46.894;15.542;2023-04-25T04:15:34;7.10;99.90
11569;DHT22;5840;46.894;15.542;2023-04-25T04:18:01;7.00;99.90
11569;DHT22;5840;46.894;15.542;2023-04-25T04:20:28;7.00;99.90
11569;DHT22;5840;46.894;15.542;2023-04-25T04:22:56;7.00;99.90
11569;DHT22;5840;46.894;15.542;2023-04-25T04:25:23;7.00;99.90
11569;DHT22;5840;46.894;15.542;2023-04-25T04:27:50;6.90;99.90
11569;DHT22;5840;46.894;15.542;2023-04-25T04:30:20;6.90;99.90
11569;DHT22;5840;46.894;15.542;2023-04-25T04:32:51;6.90;99.90
11569;DHT22;5840;46.894;15.542;2023-04-25T04:35:18;6.90;99.90
11569;DHT22;5840;46.894;15.542;2023-04-25T04:37:44;6.90;99.90
11569;DHT22;5840;46.894;15.542;2023-04-25T04:40:12;6.90;99.90
11569;DHT22;5840;46.894;15.542;2023-04-25T04:42:41;6.80;99.90
11569;DHT22;5840;46.894;15.542;2023-04-25T04:45:08;6.80;99.90
11569;DHT22;5840;46.894;15.542;2023-04-25T04:47:36;6.80;99.90
11569;DHT22;5840;46.894;15.542;2023-04-25T04:50:07;6.80;99.90
11569;DHT22;5840;46.894;15.542;2023-04-25T04:52:35;6.70;99.90
11569;DHT22;5840;46.894;15.542;2023-04-25T04:55:02;6.70;99.90
11569;DHT22;5840;46.894;15.542;2023-04-25T04:57:30;6.70;99.90
11569;DHT22;5840;46.894;15.542;2023-04-25T04:59:58;6.60;99.90
11569;DHT22;5840;46.894;15.542;2023-04-25T05:02:26;6.60;99.90
11569;DHT22;5840;46.894;15.542;2023-04-25T05:04:53;6.60;99.90
11569;DHT22;5840;46.894;15.542;2023-04-25T05:07:21;6.70;99.90
11569;DHT22;5840;46.894;15.542;2023-04-25T05:09:48;6.70;99.90
11569;DHT22;5840;46.894;15.542;2023-04-25T05:12:15;6.70;99.90
11569;DHT22;5840;46.894;15.542;2023-04-25T05:14:42;6.70;99.90
11569;DHT22;5840;46.894;15.542;2023-04-25T05:17:09;6.70;99.90
11569;DHT22;5840;46.894;15.542;2023-04-25T05:19:36;6.80;99.90
11569;DHT22;5840;46.894;15.542;2023-04-25T05:22:03;6.90;99.90
11569;DHT22;5840;46.894;15.542;2023-04-25T05:24:31;6.90;99.90
11569;DHT22;5840;46.894;15.542;2023-04-25T05:26:58;7.00;99.90
11569;DHT22;5840;46.894;15.542;2023-04-25T05:29:25;7.10;99.90
11569;DHT22;5840;46.894;15.542;2023-04-25T05:31:52;7.10;99.90
11569;DHT22;5840;46.894;15.542;2023-04-25T05:34:19;7.20;99.90
11569;DHT22;5840;46.894;15.542;2023-04-25T05:36:46;7.30;99.90
11569;DHT22;5840;46.894;15.542;2023-04-25T05:39:15;7.30;99.90
11569;DHT22;5840;46.894;15.542;2023-04-25T05:41:43;7.40;99.90
11569;DHT22;5840;46.894;15.542;2023-04-25T05:44:10;7.50;99.90
11569;DHT22;5840;46.894;15.542;2023-04-25T05:46:37;7.60;99.90
11569;DHT22;5840;46.894;15.542;2023-04-25T05:49:04;7.70;99.90
11569;DHT22;5840;46.894;15.542;2023-04-25T05:51:31;7.80;99.90
11569;DHT22;5840;46.894;15.542;2023-04-25T05:53:58;7.90;99.90
11569;DHT22;5840;46.894;15.542;2023-04-25T05:56:25;8.00;99.90
11569;DHT22;5840;46.894;15.542;2023-04-25T05:58:53;8.00;99.90
11569;DHT22;5840;46.894;15.542;2023-04-25T06:01:21;8.10;99.90
11569;DHT22;5840;46.894;15.542;2023-04-25T06:03:48;8.20;99.90
11569;DHT22;5840;46.894;15.542;2023-04-25T06:06:17;8.30;99.90
11569;DHT22;5840;46.894;15.542;2023-04-25T06:08:44;8.40;99.90
11569;DHT22;5840;46.894;15.542;2023-04-25T06:11:11;8.40;99.90
11569;DHT22;5840;46.894;15.542;2023-04-25T06:13:38;8.60;99.90
11569;DHT22;5840;46.894;15.542;2023-04-25T06:16:06;8.70;99.90
11569;DHT22;5840;46.894;15.542;2023-04-25T06:18:33;8.80;99.90
11569;DHT22;5840;46.894;15.542;2023-04-25T06:21:00;9.00;99.90
11569;DHT22;5840;46.894;15.542;2023-04-25T06:23:28;9.10;99.90
11569;DHT22;5840;46.894;15.542;2023-04-25T06:25:55;9.20;99.90
11569;DHT22;5840;46.894;15.542;2023-04-25T06:28:22;9.40;99.90
11569;DHT22;5840;46.894;15.542;2023-04-25T06:30:50;9.60;99.90
11569;DHT22;5840;46.894;15.542;2023-04-25T06:33:18;9.70;99.90
11569;DHT22;5840;46.894;15.542;2023-04-25T06:35:45;10.00;99.90
11569;DHT22;5840;46.894;15.542;2023-04-25T06:38:12;10.20;99.90
11569;DHT22;5840;46.894;15.542;2023-04-25T06:40:39;10.30;99.90
11569;DHT22;5840;46.894;15.542;2023-04-25T06:43:06;10.50;99.90
11569;DHT22;5840;46.894;15.542;2023-04-25T06:45:33;10.70;99.90
11569;DHT22;5840;46.894;15.542;2023-04-25T06:48:00;10.90;99.90
11569;DHT22;5840;46.894;15.542;2023-04-25T06:50:28;11.10;99.90
11569;DHT22;5840;46.894;15.542;2023-04-25T06:52:55;11.30;99.90
11569;DHT22;5840;46.894;15.542;2023-04-25T06:55:22;11.50;99.90
11569;DHT22;5840;46.894;15.542;2023-04-25T06:57:50;11.60;99.90
11569;DHT22;5840;46.894;15.542;2023-04-25T07:00:17;11.80;99.90
11569;DHT22;5840;46.894;15.542;2023-04-25T07:02:44;11.90;99.90
11569;DHT22;5840;46.894;15.542;2023-04-25T07:05:11;12.00;99.90
11569;DHT22;5840;46.894;15.542;2023-04-25T07:07:40;12.20;99.90
11569;DHT22;5840;46.894;15.542;2023-04-25T07:10:07;12.40;99.90
11569;DHT22;5840;46.894;15.542;2023-04-25T07:12:34;12.50;99.90
11569;DHT22;5840;46.894;15.542;2023-04-25T07:15:01;12.80;99.90
11569;DHT22;5840;46.894;15.542;2023-04-25T07:17:32;13.00;99.90
11569;DHT22;5840;46.894;15.542;2023-04-25T07:19:59;13.10;99.90
11569;DHT22;5840;46.894;15.542;2023-04-25T07:22:26;13.30;99.90
11569;DHT22;5840;46.894;15.542;2023-04-25T07:24:55;13.50;99.90
11569;DHT22;5840;46.894;15.542;2023-04-25T07:27:22;13.70;99.90
11569;DHT22;5840;46.894;15.542;2023-04-25T07:29:48;13.80;99.90
11569;DHT22;5840;46.894;15.542;2023-04-25T07:32:15;14.10;99.90
11569;DHT22;5840;46.894;15.542;2023-04-25T07:34:42;14.10;99.90
11569;DHT22;5840;46.894;15.542;2023-04-25T07:37:09;14.30;99.90
11569;DHT22;5840;46.894;15.542;2023-04-25T07:39:36;14.40;99.90
11569;DHT22;5840;46.894;15.542;2023-04-25T07:42:05;14.40;99.90
11569;DHT22;5840;46.894;15.542;2023-04-25T07:44:33;14.30;99.90
11569;DHT22;5840;46.894;15.542;2023-04-25T07:47:04;14.50;99.90
11569;DHT22;5840;46.894;15.542;2023-04-25T07:49:32;14.50;99.90
11569;DHT22;5840;46.894;15.542;2023-04-25T07:52:01;14.50;99.90
11569;DHT22;5840;46.894;15.542;2023-04-25T07:54:29;14.40;99.90
11569;DHT22;5840;46.894;15.542;2023-04-25T07:56:58;14.40;99.90
11569;DHT22;5840;46.894;15.542;2023-04-25T07:59:26;14.60;99.90
11569;DHT22;5840;46.894;15.542;2023-04-25T08:01:53;14.70;99.90
11569;DHT22;5840;46.894;15.542;2023-04-25T08:04:20;14.90;99.90
11569;DHT22;5840;46.894;15.542;2023-04-25T08:06:48;15.20;99.90
11569;DHT22;5840;46.894;15.542;2023-04-25T08:09:16;15.40;99.90
11569;DHT22;5840;46.894;15.542;2023-04-25T08:11:43;15.50;99.90
11569;DHT22;5840;46.894;15.542;2023-04-25T08:14:11;15.60;99.90
11569;DHT22;5840;46.894;15.542;2023-04-25T08:16:39;15.80;99.90
11569;DHT22;5840;46.894;15.542;2023-04-25T08:19:07;16.00;99.70
11569;DHT22;5840;46.894;15.542;2023-04-25T08:21:34;16.20;97.50
11569;DHT22;5840;46.894;15.542;2023-04-25T08:24:01;16.50;97.50
11569;DHT22;5840;46.894;15.542;2023-04-25T08:26:28;16.60;97.60
11569;DHT22;5840;46.894;15.542;2023-04-25T08:28:55;16.60;94.70
11569;DHT22;5840;46.894;15.542;2023-04-25T08:31:22;16.70;92.70
11569;DHT22;5840;46.894;15.542;2023-04-25T08:33:50;17.00;91.80
11569;DHT22;5840;46.894;15.542;2023-04-25T08:36:17;17.10;85.60
11569;DHT22;5840;46.894;15.542;2023-04-25T08:38:45;17.50;85.40
11569;DHT22;5840;46.894;15.542;2023-04-25T08:41:13;17.60;85.20
11569;DHT22;5840;46.894;15.542;2023-04-25T08:43:42;17.70;84.10
11569;DHT22;5840;46.894;15.542;2023-04-25T08:46:11;17.90;83.60
11569;DHT22;5840;46.894;15.542;2023-04-25T08:48:40;18.00;84.50
11569;DHT22;5840;46.894;15.542;2023-04-25T08:51:10;18.00;76.80
11569;DHT22;5840;46.894;15.542;2023-04-25T08:53:41;17.90;79.20
11569;DHT22;5840;46.894;15.542;2023-04-25T08:56:09;17.80;80.80
11569;DHT22;5840;46.894;15.542;2023-04-25T08:58:38;17.90;83.30
11569;DHT22;5840;46.894;15.542;2023-04-25T09:01:06;17.70;80.30
11569;DHT22;5840;46.894;15.542;2023-04-25T09:03:33;17.50;83.00
11569;DHT22;5840;46.894;15.542;2023-04-25T09:06:01;17.50;80.80
11569;DHT22;5840;46.894;15.542;2023-04-25T09:08:30;17.50;81.40
11569;DHT22;5840;46.894;15.542;2023-04-25T09:10:57;17.40;81.50
11569;DHT22;5840;46.894;15.542;2023-04-25T09:13:27;17.40;81.10
11569;DHT22;5840;46.894;15.542;2023-04-25T09:15:56;17.50;80.80
11569;DHT22;5840;46.894;15.542;2023-04-25T09:18:24;17.50;82.30
11569;DHT22;5840;46.894;15.542;2023-04-25T09:20:54;17.70;81.70
11569;DHT22;5840;46.894;15.542;2023-04-25T09:23:23;17.70;83.70
11569;DHT22;5840;46.894;15.542;2023-04-25T09:25:53;17.80;88.80
11569;DHT22;5840;46.894;15.542;2023-04-25T09:28:23;17.90;84.60
11569;DHT22;5840;46.894;15.542;2023-04-25T09:30:54;17.90;85.10
11569;DHT22;5840;46.894;15.542;2023-04-25T09:33:27;18.00;84.90
11569;DHT22;5840;46.894;15.542;2023-04-25T09:36:02;18.10;85.30
11569;DHT22;5840;46.894;15.542;2023-04-25T09:38:30;18.10;78.60
11569;DHT22;5840;46.894;15.542;2023-04-25T09:40:59;18.00;81.90
11569;DHT22;5840;46.894;15.542;2023-04-25T09:43:27;18.00;81.50
11569;DHT22;5840;46.894;15.542;2023-04-25T09:45:55;18.10;84.60
11569;DHT22;5840;46.894;15.542;2023-04-25T09:48:27;18.10;80.30
11569;DHT22;5840;46.894;15.542;2023-04-25T09:51:07;18.20;85.40
11569;DHT22;5840;46.894;15.542;2023-04-25T09:53:35;18.20;81.60
11569;DHT22;5840;46.894;15.542;2023-04-25T09:56:06;18.30;81.10
11569;DHT22;5840;46.894;15.542;2023-04-25T09:58:34;18.20;78.80
11569;DHT22;5840;46.894;15.542;2023-04-25T10:01:02;18.10;80.60
11569;DHT22;5840;46.894;15.542;2023-04-25T10:03:31;18.20;84.90
11569;DHT22;5840;46.894;15.542;2023-04-25T10:05:59;18.30;84.50
11569;DHT22;5840;46.894;15.542;2023-04-25T10:08:31;18.40;84.90
11569;DHT22;5840;46.894;15.542;2023-04-25T10:11:00;18.30;80.10
11569;DHT22;5840;46.894;15.542;2023-04-25T10:13:29;18.30;77.80
11569;DHT22;5840;46.894;15.542;2023-04-25T10:15:57;18.60;82.50
11569;DHT22;5840;46.894;15.542;2023-04-25T10:18:25;18.80;78.20
11569;DHT22;5840;46.894;15.542;2023-04-25T10:20:54;18.90;80.40
11569;DHT22;5840;46.894;15.542;2023-04-25T10:23:21;19.00;70.30
11569;DHT22;5840;46.894;15.542;2023-04-25T10:25:49;19.00;75.40
11569;DHT22;5840;46.894;15.542;2023-04-25T10:28:17;19.10;76.80
11569;DHT22;5840;46.894;15.542;2023-04-25T10:31:01;19.20;80.50
11569;DHT22;5840;46.894;15.542;2023-04-25T10:33:35;19.50;79.00
11569;DHT22;5840;46.894;15.542;2023-04-25T10:36:12;19.60;70.70
11569;DHT22;5840;46.894;15.542;2023-04-25T10:38:39;19.70;71.20
11569;DHT22;5840;46.894;15.542;2023-04-25T10:41:08;19.50;73.80
11569;DHT22;5840;46.894;15.542;2023-04-25T10:43:37;19.70;77.10
11569;DHT22;5840;46.894;15.542;2023-04-25T10:46:21;19.80;76.70
11569;DHT22;5840;46.894;15.542;2023-04-25T10:48:50;19.90;74.40
11569;DHT22;5840;46.894;15.542;2023-04-25T10:51:19;20.00;75.90
11569;DHT22;5840;46.894;15.542;2023-04-25T10:53:47;19.90;76.50
11569;DHT22;5840;46.894;15.542;2023-04-25T10:56:17;19.80;70.60
11569;DHT22;5840;46.894;15.542;2023-04-25T10:58:44;19.90;73.80
11569;DHT22;5840;46.894;15.542;2023-04-25T11:01:12;19.90;70.60
11569;DHT22;5840;46.894;15.542;2023-04-25T11:03:44;20.00;70.70
11569;DHT22;5840;46.894;15.542;2023-04-25T11:06:20;20.20;71.80
11569;DHT22;5840;46.894;15.542;2023-04-25T11:08:50;20.20;71.80
11569;DHT22;5840;46.894;15.542;2023-04-25T11:11:17;20.10;74.30
11569;DHT22;5840;46.894;15.542;2023-04-25T11:13:46;19.90;70.00
11569;DHT22;5840;46.894;15.542;2023-04-25T11:16:13;19.80;74.00
11569;DHT22;5840;46.894;15.542;2023-04-25T11:18:41;19.60;67.20
11569;DHT22;5840;46.894;15.542;2023-04-25T11:21:09;19.50;70.30
11569;DHT22;5840;46.894;15.542;2023-04-25T11:23:37;19.40;77.70
11569;DHT22;5840;46.894;15.542;2023-04-25T11:26:04;19.50;75.40
11569;DHT22;5840;46.894;15.542;2023-04-25T11:28:32;19.40;76.60
11569;DHT22;5840;46.894;15.542;2023-04-25T11:30:59;19.30;74.60
11569;DHT22;5840;46.894;15.542;2023-04-25T11:33:26;19.20;67.50
11569;DHT22;5840;46.894;15.542;2023-04-25T11:35:54;19.00;71.20
11569;DHT22;5840;46.894;15.542;2023-04-25T11:38:23;19.20;77.30
11569;DHT22;5840;46.894;15.542;2023-04-25T11:40:51;19.30;72.40
11569;DHT22;5840;46.894;15.542;2023-04-25T11:43:20;19.20;65.50
11569;DHT22;5840;46.894;15.542;2023-04-25T11:45:48;19.30;66.00
11569;DHT22;5840;46.894;15.542;2023-04-25T11:48:16;19.40;68.60
11569;DHT22;5840;46.894;15.542;2023-04-25T11:50:43;19.50;66.10
11569;DHT22;5840;46.894;15.542;2023-04-25T11:53:10;19.60;70.10
11569;DHT22;5840;46.894;15.542;2023-04-25T11:55:38;19.80;72.70
11569;DHT22;5840;46.894;15.542;2023-04-25T11:58:05;19.90;65.70
11569;DHT22;5840;46.894;15.542;2023-04-25T12:00:34;19.90;60.00
11569;DHT22;5840;46.894;15.542;2023-04-25T12:03:01;20.10;67.60
11569;DHT22;5840;46.894;15.542;2023-04-25T12:05:30;20.10;67.40
11569;DHT22;5840;46.894;15.542;2023-04-25T12:08:09;20.20;72.20
11569;DHT22;5840;46.894;15.542;2023-04-25T12:10:39;20.20;66.70
11569;DHT22;5840;46.894;15.542;2023-04-25T12:13:20;20.20;69.80
11569;DHT22;5840;46.894;15.542;2023-04-25T12:15:47;20.20;66.30
11569;DHT22;5840;46.894;15.542;2023-04-25T12:18:14;20.40;68.60
11569;DHT22;5840;46.894;15.542;2023-04-25T12:20:41;20.50;65.60
11569;DHT22;5840;46.894;15.542;2023-04-25T12:23:09;20.40;63.90
11569;DHT22;5840;46.894;15.542;2023-04-25T12:25:40;20.40;65.60
11569;DHT22;5840;46.894;15.542;2023-04-25T12:28:14;20.10;69.60
11569;DHT22;5840;46.894;15.542;2023-04-25T12:30:59;19.70;70.90
11569;DHT22;5840;46.894;15.542;2023-04-25T12:33:27;19.30;75.70
11569;DHT22;5840;46.894;15.542;2023-04-25T12:35:55;18.10;79.20
11569;DHT22;5840;46.894;15.542;2023-04-25T12:38:23;17.10;84.40
11569;DHT22;5840;46.894;15.542;2023-04-25T12:40:52;16.00;90.60
11569;DHT22;5840;46.894;15.542;2023-04-25T12:43:19;15.40;92.10
11569;DHT22;5840;46.894;15.542;2023-04-25T12:45:48;15.00;93.10
11569;DHT22;5840;46.894;15.542;2023-04-25T12:48:15;14.70;94.00
11569;DHT22;5840;46.894;15.542;2023-04-25T12:50:42;14.40;94.10
11569;DHT22;5840;46.894;15.542;2023-04-25T12:53:10;14.10;94.70
11569;DHT22;5840;46.894;15.542;2023-04-25T12:55:37;13.90;95.80
11569;DHT22;5840;46.894;15.542;2023-04-25T12:58:05;13.50;96.20
11569;DHT22;5840;46.894;15.542;2023-04-25T13:00:33;13.20;98.30
11569;DHT22;5840;46.894;15.542;2023-04-25T13:03:00;13.10;98.90
11569;DHT22;5840;46.894;15.542;2023-04-25T13:05:27;13.10;94.70
11569;DHT22;5840;46.894;15.542;2023-04-25T13:07:55;13.30;97.20
11569;DHT22;5840;46.894;15.542;2023-04-25T13:10:22;13.70;96.90
11569;DHT22;5840;46.894;15.542;2023-04-25T13:12:49;14.00;97.60
11569;DHT22;5840;46.894;15.542;2023-04-25T13:15:18;14.30;98.70
11569;DHT22;5840;46.894;15.542;2023-04-25T13:17:45;14.60;97.80
11569;DHT22;5840;46.894;15.542;2023-04-25T13:20:12;14.70;96.50
11569;DHT22;5840;46.894;15.542;2023-04-25T13:22:40;14.90;98.00
11569;DHT22;5840;46.894;15.542;2023-04-25T13:25:08;15.10;96.90
11569;DHT22;5840;46.894;15.542;2023-04-25T13:27:35;15.20;95.10
11569;DHT22;5840;46.894;15.542;2023-04-25T13:30:04;15.40;95.40
11569;DHT22;5840;46.894;15.542;2023-04-25T13:32:34;15.60;96.60
11569;DHT22;5840;46.894;15.542;2023-04-25T13:35:03;15.80;95.30
11569;DHT22;5840;46.894;15.542;2023-04-25T13:37:30;16.10;92.70
11569;DHT22;5840;46.894;15.542;2023-04-25T13:39:59;16.30;92.10
11569;DHT22;5840;46.894;15.542;2023-04-25T13:42:26;16.50;91.80
11569;DHT22;5840;46.894;15.542;2023-04-25T13:44:54;16.60;91.50
11569;DHT22;5840;46.894;15.542;2023-04-25T13:47:21;16.80;90.70
11569;DHT22;5840;46.894;15.542;2023-04-25T13:49:50;16.80;89.40
11569;DHT22;5840;46.894;15.542;2023-04-25T13:52:16;16.80;90.20
11569;DHT22;5840;46.894;15.542;2023-04-25T13:54:43;16.70;88.30
11569;DHT22;5840;46.894;15.542;2023-04-25T13:57:10;16.70;91.40
11569;DHT22;5840;46.894;15.542;2023-04-25T13:59:38;16.60;90.00
11569;DHT22;5840;46.894;15.542;2023-04-25T14:02:06;16.50;88.10
11569;DHT22;5840;46.894;15.542;2023-04-25T14:04:33;16.40;86.60
11569;DHT22;5840;46.894;15.542;2023-04-25T14:07:02;16.30;86.40
11569;DHT22;5840;46.894;15.542;2023-04-25T14:09:30;16.30;87.60
11569;DHT22;5840;46.894;15.542;2023-04-25T14:11:57;16.20;87.90
11569;DHT22;5840;46.894;15.542;2023-04-25T14:14:24;16.10;88.40
11569;DHT22;5840;46.894;15.542;2023-04-25T14:16:51;16.20;91.40
11569;DHT22;5840;46.894;15.542;2023-04-25T14:19:19;16.30;91.20
11569;DHT22;5840;46.894;15.542;2023-04-25T14:21:46;16.40;88.70
11569;DHT22;5840;46.894;15.542;2023-04-25T14:24:15;16.50;90.70
11569;DHT22;5840;46.894;15.542;2023-04-25T14:26:42;16.60;86.50
11569;DHT22;5840;46.894;15.542;2023-04-25T14:29:09;16.50;84.50
11569;DHT22;5840;46.894;15.542;2023-04-25T14:31:38;16.50;88.80
11569;DHT22;5840;46.894;15.542;2023-04-25T14:34:05;16.50;88.50
11569;DHT22;5840;46.894;15.542;2023-04-25T14:36:32;16.50;84.30
11569;DHT22;5840;46.894;15.542;2023-04-25T14:38:59;16.40;82.40
11569;DHT22;5840;46.894;15.542;2023-04-25T14:41:28;16.40;83.10
11569;DHT22;5840;46.894;15.542;2023-04-25T14:43:55;16.30;80.90
11569;DHT22;5840;46.894;15.542;2023-04-25T14:46:22;16.30;80.80
11569;DHT22;5840;46.894;15.542;2023-04-25T14:48:49;16.30;80.20
11569;DHT22;5840;46.894;15.542;2023-04-25T14:51:16;16.30;81.10
11569;DHT22;5840;46.894;15.542;2023-04-25T14:53:43;16.20;83.50
11569;DHT22;5840;46.894;15.542;2023-04-25T14:56:10;16.20;81.90
11569;DHT22;5840;46.894;15.542;2023-04-25T14:58:39;16.10;82.00
11569;DHT22;5840;46.894;15.542;2023-04-25T15:01:06;16.00;79.80
11569;DHT22;5840;46.894;15.542;2023-04-25T15:03:34;15.90;79.40
11569;DHT22;5840;46.894;15.542;2023-04-25T15:06:02;15.90;81.70
11569;DHT22;5840;46.894;15.542;2023-04-25T15:08:29;15.90;83.50
11569;DHT22;5840;46.894;15.542;2023-04-25T15:10:56;15.80;84.00
11569;DHT22;5840;46.894;15.542;2023-04-25T15:13:24;15.80;86.70
11569;DHT22;5840;46.894;15.542;2023-04-25T15:15:52;15.80;87.00
11569;DHT22;5840;46.894;15.542;2023-04-25T15:18:20;15.80;85.30
11569;DHT22;5840;46.894;15.542;2023-04-25T15:20:49;15.80;86.50
11569;DHT22;5840;46.894;15.542;2023-04-25T15:23:17;15.70;87.40
11569;DHT22;5840;46.894;15.542;2023-04-25T15:25:44;15.60;85.70
11569;DHT22;5840;46.894;15.542;2023-04-25T15:28:11;15.60;87.50
11569;DHT22;5840;46.894;15.542;2023-04-25T15:30:39;15.70;87.10
11569;DHT22;5840;46.894;15.542;2023-04-25T15:33:08;15.70;86.20
11569;DHT22;5840;46.894;15.542;2023-04-25T15:35:34;15.70;83.90
11569;DHT22;5840;46.894;15.542;2023-04-25T15:38:01;15.70;85.30
11569;DHT22;5840;46.894;15.542;2023-04-25T15:40:28;15.60;84.60
11569;DHT22;5840;46.894;15.542;2023-04-25T15:42:55;15.60;86.30